Terminal Aerodrome Forecast
Issued by NWS

Home | Current Version | Previous Version | Text Only | Print | Product List | Glossary On
Versions: 1 2 3 4 5 6 7 8 9 10 11 12 13 14 15 16 17 18 19 20 21 22
000
FTUS45 KBOU 190627 AAA
TAFBJC
TAF AMD
KBJC 190627Z 1906/2006 30007KT P6SM FEW110 SCT200
     FM191100 35009KT P6SM FEW080 SCT110 BKN200
     FM191500 04013KT P6SM SCT080 BKN140
     FM191800 07009KT P6SM VCSH SCT070 OVC120
     FM192000 09008KT P6SM VCSH FEW060 BKN070 OVC120 PROB30
      1921/2001 VRB16G28KT -TSRA BKN060CB
     FM200200 24012KT P6SM VCSH SCT070 BKN140
     FM200500 28009KT P6SM FEW100 SCT150=

USA.gov is the U.S. government's official web portal to all federal, state and local government web resources and services.